Myra Eckstein — WDF9473 — position and weather

sailwx.info

Track history (hours):
 
Tides and Currents Weather Stations Pressure Air Temp Water Temp Dewpoint Dewpoint Depression Visibility Wind Speed Wind Dir Waves Ship Positions

Myra Eckstein

Owner: Marquette Transportation Co. LLC, Paducah, KY. More information available from US FCC via Universal Licensing System and Coast Guard Vessel Documentation Center.

Last reported at 2016-Jul-21 13:19 UTC. Time now 2016-Jul-30 16:51 UTC.
Position N 33°07' W 091°09'.
Warning: this ship's position is 9 days out of date.

Length 47 m; draft 3.5 m.

Type: Towing. MMSI: 367505510.

Date/timePositionNaut miles runAvg speedWind from/ knotsBaromVisibWave heightAir tempDewpointWater temp
2016-Jul-21 13:19N 33°07' W 091°09'5 4.1
2016-Jul-21 12:09N 33°02' W 091°09'4 4.8
2016-Jul-21 11:22N 32°58' W 091°10'4 3.4
2016-Jul-21 10:16N 32°57' W 091°06'9 2.3
2016-Jul-21 06:20N 32°49' W 091°09'3 3.9
2016-Jul-21 05:33N 32°46' W 091°09'6 2.5
2016-Jul-21 03:17N 32°41' W 091°06'3 4.0
2016-Jul-21 02:33N 32°39' W 091°09'4 4.4
2016-Jul-21 01:32N 32°35' W 091°07'4 4.0
2016-Jul-21 00:31N 32°31' W 091°07'4 4.3
2016-Jul-20 23:33N 32°27' W 091°05'5 4.6
2016-Jul-20 22:33N 32°25' W 090°60'4 3.8
2016-Jul-20 21:33N 32°21' W 090°59'2 2.4
2016-Jul-20 20:33N 32°21' W 090°57'3 2.9
2016-Jul-20 19:33N 32°19' W 090°54'2 1.6
2016-Jul-20 18:33N 32°18' W 090°56'0 0.0
2016-Jul-20 17:33N 32°18' W 090°56'0 0.0
2016-Jul-20 16:33N 32°18' W 090°56'0 0.0
2016-Jul-20 15:33N 32°18' W 090°56'3 3.1
2016-Jul-20 14:33N 32°15' W 090°58'5 4.5
2016-Jul-20 13:32N 32°11' W 090°60'4 4.2
2016-Jul-20 12:32N 32°07' W 091°02'4 4.2
2016-Jul-20 11:33N 32°07' W 091°07'5 4.4
2016-Jul-20 10:24N 32°03' W 091°04'9 4.3
2016-Jul-20 08:17N 31°57' W 091°11'  
2016-Jul-17 18:27N 29°58' W 090°15'0 0.0
2016-Jul-17 17:23N 29°58' W 090°15'0 0.0
2016-Jul-17 09:28N 29°58' W 090°14'18 0.6
2016-Jul-16 03:25N 30°03' W 090°34'6 6.0
2016-Jul-16 02:22N 30°02' W 090°41'114 2.3
2016-Jul-14 00:04N 31°51' W 091°19'13 7.7
2016-Jul-13 22:24N 31°59' W 091°07'7 7.1
2016-Jul-13 21:26N 32°06' W 091°06'2 2.7
2016-Jul-13 20:33N 32°08' W 091°04'7 7.2
2016-Jul-13 19:33N 32°14' W 090°59'8 7.8
2016-Jul-13 18:33N 32°20' W 090°54'6 5.7
2016-Jul-13 17:33N 32°23' W 091°00'8 7.5
2016-Jul-13 16:33N 32°28' W 091°06'8 8.4
2016-Jul-13 15:33N 32°36' W 091°09'  
Track history (hours):
 
Tides and Currents Weather Stations Pressure Air Temp Water Temp Dewpoint Dewpoint Depression Visibility Wind Speed Wind Dir Waves Ship Positions

Myra Eckstein

Owner: Marquette Transportation Co. LLC, Paducah, KY. More information available from US FCC via Universal Licensing System and Coast Guard Vessel Documentation Center.

Last reported at 2016-Jul-21 13:19 UTC. Time now 2016-Jul-30 16:51 UTC.
Position N 33°07' W 091°09'.
Warning: this ship's position is 9 days out of date.

Length 47 m; draft 3.5 m.

Type: Towing. MMSI: 367505510.

Date/timePositionNaut miles runAvg speedWind from/ knotsBaromVisibWave heightAir tempDewpointWater temp
2016-Jul-21 13:19N 33°07' W 091°09'5 4.1
2016-Jul-21 12:09N 33°02' W 091°09'4 4.8
2016-Jul-21 11:22N 32°58' W 091°10'4 3.4
2016-Jul-21 10:16N 32°57' W 091°06'9 2.3
2016-Jul-21 06:20N 32°49' W 091°09'3 3.9
2016-Jul-21 05:33N 32°46' W 091°09'6 2.5
2016-Jul-21 03:17N 32°41' W 091°06'3 4.0
2016-Jul-21 02:33N 32°39' W 091°09'4 4.4
2016-Jul-21 01:32N 32°35' W 091°07'4 4.0
2016-Jul-21 00:31N 32°31' W 091°07'4 4.3
2016-Jul-20 23:33N 32°27' W 091°05'5 4.6
2016-Jul-20 22:33N 32°25' W 090°60'4 3.8
2016-Jul-20 21:33N 32°21' W 090°59'2 2.4
2016-Jul-20 20:33N 32°21' W 090°57'3 2.9
2016-Jul-20 19:33N 32°19' W 090°54'2 1.6
2016-Jul-20 18:33N 32°18' W 090°56'0 0.0
2016-Jul-20 17:33N 32°18' W 090°56'0 0.0
2016-Jul-20 16:33N 32°18' W 090°56'0 0.0
2016-Jul-20 15:33N 32°18' W 090°56'3 3.1
2016-Jul-20 14:33N 32°15' W 090°58'5 4.5
2016-Jul-20 13:32N 32°11' W 090°60'4 4.2
2016-Jul-20 12:32N 32°07' W 091°02'4 4.2
2016-Jul-20 11:33N 32°07' W 091°07'5 4.4
2016-Jul-20 10:24N 32°03' W 091°04'9 4.3
2016-Jul-20 08:17N 31°57' W 091°11'  
2016-Jul-17 18:27N 29°58' W 090°15'0 0.0
2016-Jul-17 17:23N 29°58' W 090°15'0 0.0
2016-Jul-17 09:28N 29°58' W 090°14'18 0.6
2016-Jul-16 03:25N 30°03' W 090°34'6 6.0
2016-Jul-16 02:22N 30°02' W 090°41'114 2.3
2016-Jul-14 00:04N 31°51' W 091°19'13 7.7
2016-Jul-13 22:24N 31°59' W 091°07'7 7.1
2016-Jul-13 21:26N 32°06' W 091°06'2 2.7
2016-Jul-13 20:33N 32°08' W 091°04'7 7.2
2016-Jul-13 19:33N 32°14' W 090°59'8 7.8
2016-Jul-13 18:33N 32°20' W 090°54'6 5.7
2016-Jul-13 17:33N 32°23' W 091°00'8 7.5
2016-Jul-13 16:33N 32°28' W 091°06'8 8.4
2016-Jul-13 15:33N 32°36' W 091°09'  

Dump ship's entire track history